createdAt,value
2018-07-11T00:02:09.993Z,95526.62
2018-07-11T00:04:39.164Z,95522.89
2018-07-11T00:07:09.004Z,95507.09
2018-07-11T00:09:38.140Z,95507.09
2018-07-11T00:12:07.347Z,95520.05
2018-07-11T00:14:36.438Z,95523.93
2018-07-11T00:17:10.641Z,95521.05
2018-07-11T00:19:39.777Z,95526.02
2018-07-11T00:22:08.928Z,95528.77
2018-07-11T00:24:38.147Z,95520.03
2018-07-11T00:27:07.600Z,95523.42
2018-07-11T00:29:36.844Z,95531.11
2018-07-11T00:32:05.962Z,95527.30
2018-07-11T00:34:35.066Z,95534.28
2018-07-11T00:37:04.237Z,95524.80
2018-07-11T00:39:33.692Z,95520.20
2018-07-11T00:42:02.785Z,95524.63
2018-07-11T00:44:31.921Z,95518.07
2018-07-11T00:47:01.114Z,95517.99
2018-07-11T00:49:30.234Z,95516.63
2018-07-11T00:51:59.317Z,95520.25
2018-07-11T00:54:28.478Z,95526.02
2018-07-11T00:56:57.553Z,95522.70
2018-07-11T00:59:28.242Z,95526.50
2018-07-11T01:02:04.289Z,95522.77
2018-07-11T01:04:33.607Z,95523.34
2018-07-11T01:07:04.387Z,95518.39
2018-07-11T01:09:42.589Z,95514.13
2018-07-11T01:12:11.686Z,95515.97
2018-07-11T01:14:40.796Z,95518.09
2018-07-11T01:17:15.066Z,95522.78
2018-07-11T01:19:44.210Z,95522.79
2018-07-11T01:22:13.350Z,95527.78
2018-07-11T01:24:42.457Z,95519.28
2018-07-11T01:27:11.652Z,95520.50
2018-07-11T01:29:40.733Z,95524.31
2018-07-11T01:32:09.921Z,95522.52
2018-07-11T01:34:39.016Z,95524.23
2018-07-11T01:37:08.129Z,95519.05
2018-07-11T01:39:37.273Z,95511.52
2018-07-11T01:42:06.398Z,95512.16
2018-07-11T01:44:35.577Z,95506.91
2018-07-11T01:47:04.710Z,95508.86
2018-07-11T01:49:34.901Z,95515.09
2018-07-11T01:52:15.240Z,95522.52
2018-07-11T01:54:44.348Z,95520.91
2018-07-11T01:57:13.460Z,95518.58
2018-07-11T01:59:42.574Z,95520.67
2018-07-11T02:02:11.794Z,95520.17
2018-07-11T02:04:41.942Z,95515.08
2018-07-11T02:07:11.968Z,95517.42
2018-07-11T02:09:41.404Z,95510.16
2018-07-11T02:12:10.592Z,95506.16
2018-07-11T02:14:39.860Z,95505.44
2018-07-11T02:17:09.006Z,95507.47
2018-07-11T02:19:38.208Z,95510.88
2018-07-11T02:22:07.312Z,95506.27
2018-07-11T02:24:36.542Z,95512.89
2018-07-11T02:27:05.736Z,95509.42
2018-07-11T02:29:34.872Z,95512.33
2018-07-11T02:32:04.063Z,95508.84
2018-07-11T02:34:34.716Z,95513.15
2018-07-11T02:37:04.690Z,95507.09
2018-07-11T02:39:34.349Z,95509.67
2018-07-11T02:42:03.509Z,95507.14
2018-07-11T02:44:32.608Z,95512.89
2018-07-11T02:47:07.037Z,95508.19
2018-07-11T02:49:36.369Z,95506.59
2018-07-11T02:52:05.467Z,95501.31
2018-07-11T02:54:34.576Z,95511.84
2018-07-11T02:57:03.764Z,95514.34
2018-07-11T02:59:32.885Z,95496.30
2018-07-11T03:02:02.010Z,95504.23
2018-07-11T03:04:31.218Z,95499.86
2018-07-11T03:07:00.323Z,95496.21
2018-07-11T03:09:29.641Z,95502.85
2018-07-11T03:11:58.756Z,95504.97
2018-07-11T03:14:27.939Z,95511.19
2018-07-11T03:16:57.114Z,95508.84
2018-07-11T03:19:26.218Z,95510.86
2018-07-11T03:21:55.314Z,95517.65
2018-07-11T03:24:24.514Z,95508.11
2018-07-11T03:26:54.133Z,95511.77
2018-07-11T03:29:23.243Z,95515.47
2018-07-11T03:31:52.351Z,95501.63
2018-07-11T03:34:21.541Z,95500.77
2018-07-11T03:36:50.722Z,95504.78
2018-07-11T03:39:19.821Z,95509.41
2018-07-11T03:41:48.947Z,95515.89
2018-07-11T03:44:18.061Z,95509.41
2018-07-11T03:46:47.209Z,95509.32
2018-07-11T03:49:16.409Z,95509.73
2018-07-11T03:51:45.522Z,95511.77
2018-07-11T03:54:14.629Z,95501.07
2018-07-11T03:56:43.763Z,95503.19
2018-07-11T03:59:12.839Z,95500.98
2018-07-11T04:01:42.030Z,95504.38
2018-07-11T04:04:11.129Z,95505.93
2018-07-11T04:06:40.253Z,95507.89
2018-07-11T04:09:09.345Z,95518.67
2018-07-11T04:11:38.445Z,95514.52
2018-07-11T04:14:07.636Z,95500.80
2018-07-11T04:16:36.952Z,95506.86
2018-07-11T04:19:06.057Z,95504.66
2018-07-11T04:21:35.144Z,95499.25
2018-07-11T04:24:04.264Z,95505.06
2018-07-11T04:26:33.430Z,95509.91
2018-07-11T04:29:02.501Z,95506.41
2018-07-11T04:31:31.930Z,95510.78
2018-07-11T04:34:01.164Z,95513.78
2018-07-11T04:36:30.265Z,95508.11
2018-07-11T04:38:59.392Z,95510.13
2018-07-11T04:41:28.538Z,95496.87
2018-07-11T04:43:57.726Z,95506.98
2018-07-11T04:46:26.822Z,95513.96
2018-07-11T04:48:55.960Z,95520.84
2018-07-11T04:51:25.064Z,95523.09
2018-07-11T04:53:54.749Z,95523.64
2018-07-11T04:56:24.261Z,95528.15
2018-07-11T04:58:53.424Z,95525.80
2018-07-11T05:01:22.654Z,95527.78
2018-07-11T05:03:51.888Z,95528.80
2018-07-11T05:06:20.970Z,95530.28
2018-07-11T05:08:50.090Z,95535.27
2018-07-11T05:11:19.273Z,95534.28
2018-07-11T05:13:48.446Z,95528.61
2018-07-11T05:16:17.828Z,95538.78
2018-07-11T05:18:46.894Z,95538.02
2018-07-11T05:21:16.072Z,95539.86
2018-07-11T05:23:45.236Z,95547.28
2018-07-11T05:26:14.361Z,95543.78
2018-07-11T05:28:43.477Z,95543.13
2018-07-11T05:31:12.577Z,95552.50
2018-07-11T05:33:41.725Z,95556.56
2018-07-11T05:36:10.847Z,95553.54
2018-07-11T05:38:40.133Z,95555.19
2018-07-11T05:41:09.264Z,95559.13
2018-07-11T05:43:38.446Z,95560.92
2018-07-11T05:46:07.765Z,95566.47
2018-07-11T05:48:36.907Z,95568.44
2018-07-11T05:51:06.093Z,95569.34
2018-07-11T05:53:35.292Z,95568.27
2018-07-11T05:56:04.403Z,95562.72
2018-07-11T05:58:33.629Z,95566.87
2018-07-11T06:01:02.777Z,95559.34
2018-07-11T06:03:31.888Z,95566.47
2018-07-11T06:06:00.988Z,95568.52
2018-07-11T06:08:30.059Z,95578.38
2018-07-11T06:10:59.240Z,95577.93
2018-07-11T06:13:28.442Z,95583.77
2018-07-11T06:15:57.636Z,95586.94
2018-07-11T06:18:26.732Z,95579.50
2018-07-11T06:20:55.878Z,95581.74
2018-07-11T06:23:24.977Z,95583.93
2018-07-11T06:25:54.174Z,95584.28
2018-07-11T06:28:23.325Z,95575.69
2018-07-11T06:30:52.458Z,95577.89
2018-07-11T06:33:21.597Z,95577.16
2018-07-11T06:35:50.686Z,95587.66
2018-07-11T06:38:19.809Z,95583.59
2018-07-11T06:40:49.261Z,95584.61
2018-07-11T06:43:18.381Z,95589.54
2018-07-11T06:45:47.501Z,95589.59
2018-07-11T06:48:16.672Z,95595.45
2018-07-11T06:50:45.818Z,95601.28
2018-07-11T06:53:15.008Z,95602.16
2018-07-11T06:55:44.189Z,95590.38
2018-07-11T06:58:13.293Z,95597.66
2018-07-11T07:00:42.469Z,95601.92
2018-07-11T07:03:11.548Z,95599.95
2018-07-11T07:05:40.665Z,95600.78
2018-07-11T07:08:09.784Z,95610.34
2018-07-11T07:10:38.856Z,95613.17
2018-07-11T07:13:07.963Z,95611.59
2018-07-11T07:15:37.115Z,95607.78
2018-07-11T07:18:06.185Z,95611.41
2018-07-11T07:20:35.305Z,95615.88
2018-07-11T07:23:04.463Z,95620.96
2018-07-11T07:25:33.525Z,95611.81
2018-07-11T07:28:02.619Z,95608.73
2018-07-11T07:30:31.720Z,95611.92
2018-07-11T07:33:00.787Z,95608.48
2018-07-11T07:35:29.995Z,95611.09
2018-07-11T07:37:59.381Z,95608.09
2018-07-11T07:40:28.504Z,95601.70
2018-07-11T07:42:57.608Z,95616.91
2018-07-11T07:45:26.771Z,95606.41
2018-07-11T07:47:55.897Z,95607.22
2018-07-11T07:50:25.029Z,95603.88
2018-07-11T07:52:54.177Z,95611.09
2018-07-11T07:55:23.241Z,95606.66
2018-07-11T07:57:52.342Z,95609.88
2018-07-11T08:00:21.510Z,95608.09
2018-07-11T08:02:50.530Z,95610.37
2018-07-11T08:05:19.593Z,95615.28
2018-07-11T08:07:48.657Z,95612.31
2018-07-11T08:10:17.731Z,95608.68
2018-07-11T08:12:46.797Z,95605.84
2018-07-11T08:15:15.865Z,95610.06
2018-07-11T08:17:44.949Z,95608.02
2018-07-11T08:20:14.039Z,95605.64
2018-07-11T08:23:22.205Z,95602.17
2018-07-11T08:26:03.492Z,95602.06
2018-07-11T08:29:55.909Z,95593.30
2018-07-11T08:32:41.549Z,95601.55
2018-07-11T08:36:39.834Z,95599.88
2018-07-11T08:41:23.993Z,95604.16
2018-07-11T08:44:06.986Z,95606.15
2018-07-11T08:46:45.816Z,95600.42
2018-07-11T08:49:39.594Z,95595.63
2018-07-11T08:55:24.721Z,95596.30
2018-07-11T09:00:07.885Z,95602.31
2018-07-11T09:02:53.014Z,95592.35
2018-07-11T09:06:34.306Z,95597.13
2018-07-11T09:09:21.409Z,95595.54
2018-07-11T09:13:05.325Z,95598.83
2018-07-11T09:15:45.941Z,95599.93
2018-07-11T09:19:01.090Z,95598.55
2018-07-11T09:21:53.161Z,95593.86
2018-07-11T09:24:44.383Z,95596.67
2018-07-11T09:27:13.732Z,95591.02
2018-07-11T09:29:43.757Z,95596.65
2018-07-11T09:32:13.492Z,95594.65
2018-07-11T09:34:43.233Z,95589.66
2018-07-11T09:37:12.324Z,95592.44
2018-07-11T09:39:42.024Z,95587.23
2018-07-11T09:42:11.124Z,95589.57
2018-07-11T09:44:40.238Z,95591.77
2018-07-11T09:47:14.746Z,95595.08
2018-07-11T09:49:44.125Z,95589.89
2018-07-11T09:52:13.480Z,95592.30
2018-07-11T09:54:42.571Z,95586.05
2018-07-11T09:57:12.091Z,95594.48
2018-07-11T09:59:41.182Z,95585.84
2018-07-11T10:02:10.777Z,95596.87
2018-07-11T10:04:39.907Z,95598.59
2018-07-11T10:07:09.029Z,95595.13
2018-07-11T10:09:38.178Z,95599.49
2018-07-11T10:12:07.278Z,95592.78
2018-07-11T10:14:36.365Z,95597.17
2018-07-11T10:17:05.538Z,95588.73
2018-07-11T10:19:34.621Z,95598.62
2018-07-11T10:22:03.715Z,95589.96
2018-07-11T10:24:32.872Z,95586.09
2018-07-11T10:27:02.033Z,95594.94
2018-07-11T10:29:31.102Z,95588.24
2018-07-11T10:32:00.220Z,95583.91
2018-07-11T10:34:29.288Z,95584.79
2018-07-11T10:36:58.368Z,95583.52
2018-07-11T10:39:27.444Z,95584.48
2018-07-11T10:41:56.592Z,95586.09
2018-07-11T10:44:25.734Z,95578.83
2018-07-11T10:47:00.189Z,95580.37
2018-07-11T10:49:29.304Z,95576.15
2018-07-11T10:51:58.549Z,95588.50
2018-07-11T10:54:27.620Z,95586.03
2018-07-11T10:56:56.711Z,95591.06
2018-07-11T10:59:25.797Z,95589.20
2018-07-11T11:01:54.912Z,95591.94
2018-07-11T11:04:24.083Z,95594.83
2018-07-11T11:06:53.306Z,95599.06
2018-07-11T11:09:22.875Z,95603.34
2018-07-11T11:11:51.970Z,95607.17
2018-07-11T11:14:21.080Z,95606.30
2018-07-11T11:16:50.208Z,95605.77
2018-07-11T11:19:19.293Z,95604.09
2018-07-11T11:21:48.385Z,95610.14
2018-07-11T11:24:17.482Z,95612.23
2018-07-11T11:26:46.574Z,95608.34
2018-07-11T11:29:15.816Z,95606.25
2018-07-11T11:31:44.934Z,95606.86
2018-07-11T11:34:14.300Z,95609.05
2018-07-11T11:36:43.379Z,95613.55
2018-07-11T11:39:12.613Z,95604.96
2018-07-11T11:41:41.797Z,95601.50
2018-07-11T11:44:10.953Z,95610.55
2018-07-11T11:46:40.086Z,95614.95
2018-07-11T11:49:09.217Z,95613.64
2018-07-11T11:51:38.401Z,95611.98
2018-07-11T11:54:07.500Z,95610.10
2018-07-11T11:56:36.581Z,95609.34
2018-07-11T11:59:05.803Z,95612.80
2018-07-11T12:01:34.937Z,95600.89
2018-07-11T12:04:04.099Z,95606.86
2018-07-11T12:06:33.165Z,95606.23
2018-07-11T12:09:02.269Z,95611.48
2018-07-11T12:11:31.437Z,95609.63
2018-07-11T12:14:00.471Z,95609.52
2018-07-11T12:16:29.620Z,95611.09
2018-07-11T12:18:58.720Z,95607.72
2018-07-11T12:21:27.909Z,95608.70
2018-07-11T12:23:56.987Z,95603.47
2018-07-11T12:26:26.491Z,95599.77
2018-07-11T12:28:55.540Z,95589.91
2018-07-11T12:31:24.684Z,95593.47
2018-07-11T12:33:53.780Z,95597.17
2018-07-11T12:36:22.898Z,95602.05
2018-07-11T12:38:54.198Z,95599.17
2018-07-11T12:41:23.530Z,95610.70
2018-07-11T12:43:52.602Z,95605.03
2018-07-11T12:46:21.713Z,95617.86
2018-07-11T12:48:56.138Z,95612.48
2018-07-11T12:51:25.358Z,95615.75
2018-07-11T12:53:54.542Z,95615.64
2018-07-11T12:56:23.656Z,95611.64
2018-07-11T12:58:52.764Z,95608.29
2018-07-11T13:01:22.153Z,95603.22
2018-07-11T13:03:53.836Z,95604.88
2018-07-11T13:06:24.129Z,95603.25
2018-07-11T13:08:53.561Z,95607.41
2018-07-11T13:11:22.672Z,95594.66
2018-07-11T13:13:52.249Z,95599.69
2018-07-11T13:16:21.377Z,95596.44
2018-07-11T13:18:50.448Z,95598.18
2018-07-11T13:21:19.541Z,95595.48
2018-07-11T13:23:48.633Z,95594.13
2018-07-11T13:26:17.785Z,95597.44
2018-07-11T13:28:46.859Z,95587.70
2018-07-11T13:31:15.940Z,95590.44
2018-07-11T13:33:45.142Z,95594.56
2018-07-11T13:36:14.204Z,95594.99
2018-07-11T13:38:43.283Z,95605.37
2018-07-11T13:41:12.426Z,95603.70
2018-07-11T13:43:41.500Z,95616.24
2018-07-11T13:46:10.578Z,95603.69
2018-07-11T13:51:19.501Z,95601.59
2018-07-11T13:53:48.554Z,95596.09
2018-07-11T13:56:17.617Z,95597.13
2018-07-11T13:58:46.694Z,95594.87
2018-07-11T14:01:15.841Z,95594.09
2018-07-11T14:03:44.905Z,95589.02
2018-07-11T14:06:14.099Z,95584.04
2018-07-11T14:08:43.333Z,95576.78
2018-07-11T14:11:12.465Z,95584.23
2018-07-11T14:13:41.559Z,95588.48
2018-07-11T14:16:11.643Z,95590.89
2018-07-11T14:18:40.801Z,95590.88
2018-07-11T14:21:09.943Z,95594.02
2018-07-11T14:23:40.425Z,95592.47
2018-07-11T14:26:10.635Z,95593.17
2018-07-11T14:28:46.272Z,95591.64
2018-07-11T14:31:20.757Z,95596.84
2018-07-11T14:33:49.895Z,95598.38
2018-07-11T14:36:19.013Z,95600.21
2018-07-11T14:38:48.107Z,95599.77
2018-07-11T14:41:17.233Z,95607.95
2018-07-11T14:43:46.654Z,95610.48
2018-07-11T14:46:16.117Z,95610.26
2018-07-11T14:48:45.308Z,95615.34
2018-07-11T14:51:14.482Z,95616.45
2018-07-11T14:53:43.569Z,95610.13
2018-07-11T14:56:12.896Z,95611.97
2018-07-11T14:58:41.988Z,95607.02
2018-07-11T15:01:11.058Z,95616.47
2018-07-11T15:03:40.153Z,95616.44
2018-07-11T15:06:09.295Z,95614.67
2018-07-11T15:08:38.579Z,95619.97
2018-07-11T15:11:07.625Z,95618.73
2018-07-11T15:13:36.771Z,95626.97
2018-07-11T15:16:06.537Z,95617.67
2018-07-11T15:18:35.678Z,95619.80
2018-07-11T15:21:05.225Z,95615.50
2018-07-11T15:23:34.521Z,95615.29
2018-07-11T15:26:03.688Z,95612.80
2018-07-11T15:28:32.783Z,95612.05
2018-07-11T15:31:01.912Z,95617.03
2018-07-11T15:33:31.033Z,95623.77
2018-07-11T15:36:00.253Z,95618.00
2018-07-11T15:38:29.531Z,95619.09
2018-07-11T15:41:00.313Z,95613.58
2018-07-11T15:43:30.101Z,95609.75
2018-07-11T15:45:59.717Z,95613.02
2018-07-11T15:48:29.289Z,95610.14
2018-07-11T15:50:58.402Z,95606.59
2018-07-11T15:53:28.748Z,95601.77
2018-07-11T15:55:59.930Z,95606.95
2018-07-11T15:58:31.213Z,95610.69
2018-07-11T16:01:04.924Z,95618.59
2018-07-11T16:03:37.695Z,95624.34
2018-07-11T16:06:08.627Z,95619.09
2018-07-11T16:08:37.791Z,95614.41
2018-07-11T16:11:06.905Z,95618.39
2018-07-11T16:13:36.059Z,95616.31
2018-07-11T16:16:05.135Z,95604.92
2018-07-11T16:18:34.436Z,95617.54
2018-07-11T16:21:03.608Z,95622.05
2018-07-11T16:23:32.769Z,95619.92
2018-07-11T16:26:02.149Z,95615.66
2018-07-11T16:28:31.275Z,95613.52
2018-07-11T16:31:00.373Z,95624.13
2018-07-11T16:33:29.491Z,95643.02
2018-07-11T16:35:58.665Z,95629.55
2018-07-11T16:38:27.779Z,95633.06
2018-07-11T16:40:57.373Z,95635.69
2018-07-11T16:43:27.845Z,95637.08
2018-07-11T16:45:56.945Z,95638.63
2018-07-11T16:48:26.029Z,95641.39
2018-07-11T16:50:55.260Z,95636.66
2018-07-11T16:53:24.340Z,95635.75
2018-07-11T16:55:53.484Z,95637.14
2018-07-11T16:58:25.913Z,95638.23
2018-07-11T17:00:55.078Z,95641.53
2018-07-11T17:03:26.100Z,95641.27
2018-07-11T17:06:00.868Z,95647.91
2018-07-11T17:08:32.428Z,95645.55
2018-07-11T17:11:20.387Z,95653.19
2018-07-11T17:14:02.253Z,95654.03
2018-07-11T17:16:46.833Z,95660.58
2018-07-11T17:19:22.513Z,95660.02
2018-07-11T17:21:51.671Z,95666.17
2018-07-11T17:24:21.992Z,95665.84
2018-07-11T17:26:54.650Z,95660.52
2018-07-11T17:29:27.260Z,95660.98
2018-07-11T17:32:05.149Z,95659.76
2018-07-11T17:34:34.829Z,95652.39
2018-07-11T17:37:05.190Z,95649.91
2018-07-11T17:39:50.854Z,95658.47
2018-07-11T17:42:23.145Z,95653.25
2018-07-11T17:45:04.270Z,95659.13
2018-07-11T17:48:38.579Z,95660.58
2018-07-11T17:51:14.585Z,95666.00
2018-07-11T17:53:48.769Z,95672.09
2018-07-11T17:56:21.950Z,95665.30
2018-07-11T17:58:54.279Z,95664.81
2018-07-11T18:01:35.510Z,95668.05
2018-07-11T18:04:17.511Z,95672.44
2018-07-11T18:07:06.888Z,95669.91
2018-07-11T18:09:46.228Z,95670.36
2018-07-11T18:12:25.202Z,95667.13
2018-07-11T18:17:07.229Z,95668.97
2018-07-11T18:21:54.601Z,95666.90
2018-07-11T18:24:36.125Z,95669.64
2018-07-11T18:27:08.201Z,95679.65
2018-07-11T18:30:20.891Z,95676.72
2018-07-11T18:33:00.940Z,95676.11
2018-07-11T18:35:40.845Z,95687.04
2018-07-11T18:38:30.099Z,95694.27
2018-07-11T18:41:28.164Z,95694.13
2018-07-11T18:46:14.496Z,95689.05
2018-07-11T18:48:52.458Z,95701.41
2018-07-11T18:51:35.450Z,95700.90
2018-07-11T18:54:10.613Z,95700.50
2018-07-11T18:57:07.512Z,95699.36
2018-07-11T18:59:58.925Z,95707.55
2018-07-11T19:03:40.855Z,95707.92
2018-07-11T19:06:35.023Z,95703.23
2018-07-11T19:09:11.144Z,95711.38
2018-07-11T19:11:57.398Z,95704.02
2018-07-11T19:14:42.298Z,95706.42
2018-07-11T19:18:36.642Z,95711.66
2018-07-11T19:21:10.925Z,95715.59
2018-07-11T19:23:52.033Z,95717.52
2018-07-11T19:26:32.476Z,95720.66
2018-07-11T19:29:10.218Z,95729.72
2018-07-11T19:31:59.912Z,95726.16
2018-07-11T19:34:40.142Z,95727.59
2018-07-11T19:38:17.884Z,95737.34
2018-07-11T19:40:51.717Z,95734.59
2018-07-11T19:43:30.746Z,95744.91
2018-07-11T19:46:07.100Z,95746.44
2018-07-11T19:48:58.944Z,95741.90
2018-07-11T19:51:35.323Z,95748.50
2018-07-11T19:56:12.256Z,95740.23
2018-07-11T19:58:41.414Z,95744.72
2018-07-11T20:01:10.485Z,95747.41
2018-07-11T20:03:39.529Z,95755.19
2018-07-11T20:06:08.614Z,95757.19
2018-07-11T20:08:37.883Z,95757.11
2018-07-11T20:11:07.066Z,95764.27
2018-07-11T20:13:36.181Z,95756.20
2018-07-11T20:16:05.314Z,95754.06
2018-07-11T20:18:34.366Z,95756.06
2018-07-11T20:21:03.441Z,95751.67
2018-07-11T20:23:32.591Z,95751.89
2018-07-11T20:26:01.725Z,95750.04
2018-07-11T20:28:30.805Z,95743.13
2018-07-11T20:30:59.881Z,95739.72
2018-07-11T20:33:28.975Z,95744.97
2018-07-11T20:35:58.139Z,95744.45
2018-07-11T20:38:27.300Z,95748.67
2018-07-11T20:40:56.421Z,95751.63
2018-07-11T20:43:25.494Z,95749.39
2018-07-11T20:45:54.556Z,95754.03
2018-07-11T20:48:23.648Z,95756.31
2018-07-11T20:50:52.740Z,95758.06
2018-07-11T20:53:21.838Z,95751.01
2018-07-11T20:55:50.900Z,95759.70
2018-07-11T20:58:31.475Z,95763.85
2018-07-11T21:01:11.906Z,95767.28
2018-07-11T21:04:56.424Z,95764.53
2018-07-11T21:07:37.541Z,95767.62
2018-07-11T21:10:21.880Z,95768.12
2018-07-11T21:15:34.759Z,95768.94
2018-07-11T21:18:20.184Z,95775.77
2018-07-11T21:20:49.269Z,95774.99
2018-07-11T21:23:18.351Z,95774.44
2018-07-11T21:25:47.416Z,95775.48
2018-07-11T21:28:16.505Z,95770.63
2018-07-11T21:30:45.617Z,95775.12
2018-07-11T21:33:14.716Z,95774.12
2018-07-11T21:35:43.786Z,95775.31
2018-07-11T21:38:12.857Z,95771.19
2018-07-11T21:40:41.994Z,95773.83
2018-07-11T21:43:11.038Z,95777.06
2018-07-11T21:45:40.080Z,95775.12
2018-07-11T21:48:09.152Z,95772.38
2018-07-11T21:50:38.248Z,95774.27
2018-07-11T21:53:07.325Z,95765.88
2018-07-11T21:55:36.401Z,95765.66
2018-07-11T21:58:06.110Z,95771.00
2018-07-11T22:00:40.170Z,95769.44
2018-07-11T22:03:10.244Z,95765.13
2018-07-11T22:05:39.486Z,95769.50
2018-07-11T22:08:09.360Z,95766.76
2018-07-11T22:10:39.480Z,95767.04
2018-07-11T22:13:09.274Z,95766.42
2018-07-11T22:15:38.320Z,95769.97
2018-07-11T22:18:18.868Z,95768.30
2018-07-11T22:20:46.861Z,95762.87
2018-07-11T22:23:14.879Z,95767.05
2018-07-11T22:25:42.964Z,95772.70
2018-07-11T22:28:10.982Z,95766.41
2018-07-11T22:30:38.968Z,95766.56
2018-07-11T22:33:07.024Z,95768.69
2018-07-11T22:35:35.282Z,95769.05
2018-07-11T22:38:03.336Z,95762.94
2018-07-11T22:40:31.354Z,95765.81
2018-07-11T22:42:59.345Z,95763.86
2018-07-11T22:45:27.373Z,95773.95
2018-07-11T22:47:55.580Z,95771.77
2018-07-11T22:50:23.740Z,95775.78
2018-07-11T22:52:51.747Z,95780.88
2018-07-11T22:55:19.819Z,95778.06
2018-07-11T22:57:47.892Z,95775.94
2018-07-11T23:00:15.954Z,95779.09
2018-07-11T23:02:43.954Z,95774.05
2018-07-11T23:05:11.977Z,95774.59
2018-07-11T23:07:39.969Z,95773.91
2018-07-11T23:10:07.986Z,95775.77
2018-07-11T23:12:35.984Z,95772.83
2018-07-11T23:15:04.019Z,95777.48
2018-07-11T23:17:32.016Z,95772.07
2018-07-11T23:20:00.037Z,95771.38
2018-07-11T23:22:28.046Z,95769.08
2018-07-11T23:24:56.090Z,95769.45
2018-07-11T23:27:24.098Z,95765.55
2018-07-11T23:29:52.118Z,95761.11
2018-07-11T23:32:20.140Z,95762.68
2018-07-11T23:34:48.157Z,95764.31
2018-07-11T23:37:16.149Z,95764.81
2018-07-11T23:39:44.189Z,95763.99
2018-07-11T23:42:12.188Z,95758.84
2018-07-11T23:44:40.184Z,95761.17
2018-07-11T23:47:08.202Z,95756.03
2018-07-11T23:49:36.224Z,95755.02
2018-07-11T23:52:04.244Z,95757.61
2018-07-11T23:54:32.241Z,95754.05
2018-07-11T23:57:00.264Z,95758.92
2018-07-11T23:59:28.270Z,95750.38
